Time;durP1;ratioP1;P1;durP2;ratioP2;P2;SDS_P1;SDS_P2;PMS_P1;PMS_P2;Temp;Humidity;BMP_temperature;BMP_pressure;BME280_temperature;BME280_humidity;BME280_pressure;Samples;Min_cycle;Max_cycle;Signal;HPM_P1;HPM_P2
2022/04/03 00:00:58;;;;;;;4.88;1.20;;;-0.80;75.30;;;;;;4992706;28;20101;-74
2022/04/03 00:03:24;;;;;;;1.80;0.90;;;-0.80;75.20;;;;;;4992653;28;20027;-74
2022/04/03 00:05:50;;;;;;;3.42;0.88;;;-0.80;75.10;;;;;;4992551;28;20054;-76
2022/04/03 00:08:15;;;;;;;4.88;1.20;;;-0.80;75.10;;;;;;4992507;28;20050;-76
2022/04/03 00:10:44;;;;;;;4.35;1.13;;;-0.80;75.20;;;;;;4991599;28;20046;-76
2022/04/03 00:13:10;;;;;;;4.97;1.10;;;-0.80;75.20;;;;;;4992595;28;20092;-76
2022/04/03 00:15:41;;;;;;;3.35;1.00;;;-0.80;75.30;;;;;;4992432;28;20630;-76
2022/04/03 00:18:08;;;;;;;9.35;1.15;;;-0.90;75.00;;;;;;4992355;28;20026;-77
2022/04/03 00:20:39;;;;;;;5.07;1.30;;;-0.90;75.20;;;;;;4992386;28;20552;-77
2022/04/03 00:23:06;;;;;;;8.77;1.17;;;-0.80;75.30;;;;;;4992249;28;20068;-77
2022/04/03 00:25:32;;;;;;;2.33;1.10;;;-0.80;75.20;;;;;;4992334;28;20030;-77
2022/04/03 00:27:58;;;;;;;8.13;1.23;;;-0.80;75.10;;;;;;4992224;28;20613;-76
2022/04/03 00:30:24;;;;;;;3.08;1.20;;;-0.70;75.00;;;;;;4992336;28;20113;-76
2022/04/03 00:32:49;;;;;;;4.38;1.05;;;-0.80;74.70;;;;;;4992298;28;20497;-76
2022/04/03 00:35:16;;;;;;;6.68;1.10;;;-0.80;74.80;;;;;;4992446;28;20030;-76
2022/04/03 00:37:42;;;;;;;1.92;1.00;;;-0.90;75.00;;;;;;4991999;28;20506;-76
2022/04/03 00:40:09;;;;;;;7.03;1.25;;;-0.90;75.20;;;;;;4992071;28;20041;-76
2022/04/03 00:42:36;;;;;;;4.63;1.13;;;-0.90;75.30;;;;;;4992424;28;20113;-76
2022/04/03 00:45:04;;;;;;;5.65;1.13;;;-0.90;75.20;;;;;;4992342;28;20034;-76
2022/04/03 00:47:31;;;;;;;3.72;1.67;;;-0.90;75.10;;;;;;4992324;28;20399;-76
2022/04/03 00:49:57;;;;;;;2.90;1.10;;;-0.90;75.20;;;;;;4992348;28;20031;-76
2022/04/03 00:52:23;;;;;;;3.95;1.15;;;-1.00;75.30;;;;;;4990843;28;20393;-76
2022/04/03 00:54:48;;;;;;;6.05;1.30;;;-1.00;75.30;;;;;;4992380;28;20049;-75
2022/04/03 00:57:15;;;;;;;11.65;1.30;;;-1.10;75.50;;;;;;4991884;28;20537;-76
2022/04/03 00:59:42;;;;;;;7.40;1.20;;;-1.10;76.10;;;;;;4991961;28;20535;-76
2022/04/03 01:02:08;;;;;;;8.50;1.20;;;-1.20;76.60;;;;;;4992892;28;20039;-76
2022/04/03 01:04:37;;;;;;;4.18;1.35;;;-1.20;77.00;;;;;;4995775;28;20076;-76
2022/04/03 01:07:03;;;;;;;9.30;1.42;;;-1.20;77.00;;;;;;4995449;28;20415;-76
2022/04/03 01:09:29;;;;;;;11.35;1.33;;;-1.20;77.10;;;;;;4995440;28;20050;-76
2022/04/03 01:11:56;;;;;;;5.68;1.60;;;-1.20;77.10;;;;;;4995326;28;20422;-76
2022/04/03 01:14:36;;;;;;;4.70;1.27;;;-1.20;77.50;;;;;;4995302;28;20026;-75
2022/04/03 01:17:03;;;;;;;5.25;1.42;;;-1.20;77.60;;;;;;4995237;28;20062;-74
2022/04/03 01:19:29;;;;;;;2.83;1.08;;;-1.20;77.60;;;;;;4995274;28;20041;-74
2022/04/03 01:21:55;;;;;;;1.27;1.10;;;-1.20;77.60;;;;;;4995148;28;20039;-75
2022/04/03 01:24:23;;;;;;;4.35;1.33;;;-1.20;78.20;;;;;;4995547;28;20429;-74
2022/04/03 01:26:49;;;;;;;5.55;1.60;;;-1.20;78.20;;;;;;4995440;28;20081;-74
2022/04/03 01:29:17;;;;;;;2.58;1.10;;;-1.30;78.90;;;;;;4995094;28;20580;-74
2022/04/03 01:31:45;;;;;;;2.50;1.10;;;-1.30;79.10;;;;;;4995118;28;20561;-73
2022/04/03 01:34:11;;;;;;;2.53;1.25;;;-1.30;79.50;;;;;;4995027;28;20109;-73
2022/04/03 01:36:37;;;;;;;4.60;1.30;;;-1.30;79.80;;;;;;4994736;28;20048;-73
2022/04/03 01:39:03;;;;;;;3.25;1.80;;;-1.40;79.60;;;;;;4994810;28;20117;-73
2022/04/03 01:41:29;;;;;;;2.15;1.75;;;-1.60;79.90;;;;;;4995110;28;20118;-73
2022/04/03 01:43:54;;;;;;;3.55;1.08;;;-1.60;80.20;;;;;;4995133;28;20030;-74
2022/04/03 01:46:20;;;;;;;2.60;1.25;;;-1.70;80.30;;;;;;4995124;28;20506;-75
2022/04/03 01:48:46;;;;;;;3.97;1.00;;;-1.70;80.70;;;;;;4994698;28;20386;-75
2022/04/03 01:51:12;;;;;;;3.45;1.10;;;-1.90;81.50;;;;;;4994610;28;20072;-74
2022/04/03 01:53:38;;;;;;;5.97;1.23;;;-1.90;82.30;;;;;;4994653;28;20482;-75
2022/04/03 01:56:06;;;;;;;4.68;1.35;;;-1.90;82.60;;;;;;4994370;28;20034;-74
2022/04/03 01:58:33;;;;;;;2.00;0.90;;;-2.00;82.60;;;;;;4994662;28;20034;-74
2022/04/03 02:00:59;;;;;;;6.90;1.50;;;-2.00;82.50;;;;;;4994383;28;20034;-74
2022/04/03 02:03:26;;;;;;;2.50;0.90;;;-2.00;82.50;;;;;;4994532;28;20112;-73
2022/04/03 02:05:53;;;;;;;2.75;1.20;;;-2.00;82.70;;;;;;4994367;28;20034;-73
2022/04/03 02:08:19;;;;;;;3.13;0.98;;;-2.10;82.50;;;;;;4994636;28;20109;-73
2022/04/03 02:10:45;;;;;;;1.80;0.80;;;-2.10;82.70;;;;;;4994623;28;20389;-73
2022/04/03 02:13:11;;;;;;;2.80;1.13;;;-2.20;82.70;;;;;;4994041;28;20026;-74
2022/04/03 02:15:38;;;;;;;4.95;1.27;;;-2.20;82.80;;;;;;4994305;28;20113;-74
2022/04/03 02:18:04;;;;;;;3.22;1.10;;;-2.20;83.20;;;;;;4994332;28;20378;-74
2022/04/03 02:20:31;;;;;;;3.55;1.70;;;-2.20;84.10;;;;;;4994092;28;20478;-74
2022/04/03 02:22:58;;;;;;;2.60;1.00;;;-2.20;86.40;;;;;;4994022;28;20038;-73
2022/04/03 02:54:28;;;;;;;6.32;1.38;;;-2.50;94.50;;;;;;4992753;28;20061;-75
2022/04/03 02:56:54;;;;;;;5.30;1.10;;;-2.50;94.60;;;;;;4993467;28;20677;-75
2022/04/03 02:59:20;;;;;;;2.42;1.00;;;-2.40;94.60;;;;;;4993748;28;20479;-75
2022/04/03 03:01:47;;;;;;;5.15;1.13;;;-2.50;94.60;;;;;;4993347;28;20109;-75
2022/04/03 03:37:53;;;;;;;3.88;1.00;;;-2.50;95.90;;;;;;5768140;23;20069;-74
2022/04/03 03:40:18;;;;;;;5.07;1.30;;;-2.50;96.10;;;;;;4993086;28;20037;-75
2022/04/03 03:42:44;;;;;;;3.88;1.05;;;-2.50;96.30;;;;;;4993011;28;20027;-74
2022/04/03 03:45:13;;;;;;;7.03;1.10;;;-2.60;96.40;;;;;;4992778;28;20508;-74
2022/04/03 03:47:39;;;;;;;1.77;1.02;;;-2.60;96.70;;;;;;4992979;28;20062;-74
2022/04/03 03:50:06;;;;;;;4.50;1.27;;;-2.60;96.80;;;;;;4992901;28;20022;-76
2022/04/03 03:52:31;;;;;;;7.55;1.55;;;-2.60;97.20;;;;;;4992661;28;20072;-74
2022/04/03 03:54:57;;;;;;;3.38;1.30;;;-2.60;97.30;;;;;;4992525;28;20034;-74
2022/04/03 03:57:24;;;;;;;4.45;1.30;;;-2.60;97.10;;;;;;4992893;28;20483;-72
2022/04/03 03:59:50;;;;;;;5.78;1.55;;;-2.60;97.30;;;;;;4992374;28;20034;-72
2022/04/03 04:02:16;;;;;;;2.17;1.10;;;-2.60;97.40;;;;;;4992919;28;20030;-72
2022/04/03 04:04:42;;;;;;;5.70;1.42;;;-2.60;97.60;;;;;;4992460;28;20491;-72
2022/04/03 04:07:07;;;;;;;4.07;1.13;;;-2.60;98.00;;;;;;4992664;28;20030;-72
2022/04/03 04:09:33;;;;;;;3.78;1.15;;;-2.70;98.10;;;;;;4992410;28;20026;-74
2022/04/03 04:11:59;;;;;;;4.50;1.05;;;-2.70;98.10;;;;;;4992374;28;20092;-72
2022/04/03 04:14:24;;;;;;;8.25;1.17;;;-2.70;98.30;;;;;;4992415;28;20048;-73
2022/04/03 04:16:50;;;;;;;4.10;1.40;;;-2.60;98.30;;;;;;4992420;28;20027;-73
2022/04/03 04:19:16;;;;;;;4.38;1.33;;;-2.60;98.30;;;;;;4992693;28;20500;-75
2022/04/03 04:21:42;;;;;;;3.90;1.08;;;-2.60;98.50;;;;;;4992578;28;20065;-73
2022/04/03 04:24:08;;;;;;;4.57;1.25;;;-2.60;98.70;;;;;;4992358;28;20019;-76
2022/04/03 04:26:34;;;;;;;8.13;1.52;;;-2.60;98.90;;;;;;4991123;28;20030;-75
2022/04/03 04:28:59;;;;;;;6.75;1.20;;;-2.60;98.70;;;;;;4992162;28;20027;-77
2022/04/03 04:31:25;;;;;;;3.95;1.30;;;-2.50;98.70;;;;;;4992686;28;20117;-71
2022/04/03 04:33:50;;;;;;;5.78;1.33;;;-2.50;98.50;;;;;;4992204;28;20466;-74
2022/04/03 04:36:16;;;;;;;5.90;1.30;;;-2.50;98.60;;;;;;4992584;28;20026;-75
2022/04/03 04:38:42;;;;;;;2.67;1.10;;;-2.50;99.90;;;;;;4995492;28;20531;-73
2022/04/03 04:41:08;;;;;;;3.50;1.30;;;-2.40;99.90;;;;;;4994543;28;20064;-73
2022/04/03 04:43:33;;;;;;;3.20;1.05;;;-2.00;99.90;;;;;;4996094;28;20105;-76
2022/04/03 04:45:59;;;;;;;1.67;1.25;;;-1.80;99.90;;;;;;4995982;28;20057;-74
2022/04/03 04:48:25;;;;;;;6.88;1.30;;;-1.90;99.90;;;;;;4995842;28;20384;-72
2022/04/03 04:50:51;;;;;;;3.33;1.10;;;-2.00;99.90;;;;;;4995906;28;20034;-78
2022/04/03 04:53:17;;;;;;;1.88;1.00;;;-2.10;99.90;;;;;;4995975;28;20022;-76
2022/04/03 04:55:43;;;;;;;6.05;1.58;;;-2.10;99.90;;;;;;4994657;28;20089;-74
2022/04/03 04:58:08;;;;;;;5.03;1.27;;;-1.80;99.90;;;;;;4995447;28;20027;-76
2022/04/03 05:00:34;;;;;;;2.78;1.30;;;-1.80;99.90;;;;;;4990704;28;20466;-77
2022/04/03 05:03:00;;;;;;;4.80;1.77;;;-1.90;99.90;;;;;;4976233;28;20015;-78
2022/04/03 05:05:27;;;;;;;4.55;1.20;;;-1.90;99.90;;;;;;4975900;28;20110;-73
2022/04/03 05:07:57;;;;;;;2.58;1.20;;;-1.90;99.90;;;;;;4982810;28;20031;-74
2022/04/03 05:10:25;;;;;;;5.80;1.20;;;-1.90;99.90;;;;;;4978608;28;20165;-75
2022/04/03 05:12:50;;;;;;;4.65;1.40;;;-1.90;99.90;;;;;;4986030;28;20030;-75
2022/04/03 05:15:17;;;;;;;7.28;1.75;;;-1.90;99.90;;;;;;4984337;28;20033;-75
2022/04/03 05:17:44;;;;;;;2.53;1.00;;;-1.90;99.90;;;;;;4985088;28;20019;-72
2022/04/03 05:20:12;;;;;;;4.03;1.25;;;-1.90;99.90;;;;;;4985947;28;20038;-71
2022/04/03 05:22:39;;;;;;;5.15;1.10;;;-1.80;99.90;;;;;;4989405;28;20034;-80
2022/04/03 05:25:05;;;;;;;2.28;1.08;;;-1.80;99.90;;;;;;4983364;28;20448;-79
2022/04/03 05:27:32;;;;;;;6.05;1.50;;;-1.80;99.90;;;;;;4989295;28;20014;-81
2022/04/03 05:29:58;;;;;;;5.22;1.00;;;-1.70;99.90;;;;;;4993465;28;20096;-80
2022/04/03 05:32:28;;;;;;;7.68;1.10;;;-1.70;99.90;;;;;;4978636;28;20027;-79
2022/04/03 05:34:55;;;;;;;3.45;1.20;;;-1.70;99.90;;;;;;4989324;28;20038;-77
2022/04/03 05:37:21;;;;;;;2.25;0.95;;;-1.60;99.90;;;;;;4989266;28;20049;-79
2022/04/03 05:39:48;;;;;;;3.70;1.05;;;-1.60;99.90;;;;;;4989206;28;20034;-78
2022/04/03 05:42:13;;;;;;;3.08;1.02;;;-1.50;99.90;;;;;;4989299;28;20090;-78
2022/04/03 05:44:39;;;;;;;2.85;0.90;;;-1.50;99.80;;;;;;4986042;28;20462;-77
2022/04/03 05:47:05;;;;;;;2.92;1.10;;;-1.50;99.70;;;;;;4983091;28;20077;-77
2022/04/03 05:49:31;;;;;;;8.27;1.13;;;-1.40;99.60;;;;;;4975120;28;20440;-77
2022/04/03 05:51:57;;;;;;;5.97;1.10;;;-1.30;99.70;;;;;;4975101;28;20058;-77
2022/04/03 05:54:23;;;;;;;2.15;1.00;;;-1.20;99.50;;;;;;4973914;28;20027;-77
2022/04/03 05:56:49;;;;;;;7.10;1.38;;;-1.20;99.20;;;;;;4975421;28;20035;-77
2022/04/03 05:59:15;;;;;;;3.15;1.10;;;-1.10;98.80;;;;;;4975248;28;20023;-78
2022/04/03 06:01:41;;;;;;;2.20;1.10;;;-1.00;98.80;;;;;;4975067;28;20505;-77
2022/04/03 06:04:07;;;;;;;6.65;2.10;;;-0.90;98.50;;;;;;4974993;28;20050;-77
2022/04/03 06:06:32;;;;;;;6.65;1.40;;;-0.80;98.30;;;;;;4975142;28;20034;-78
2022/04/03 06:08:58;;;;;;;6.15;1.42;;;-0.70;97.60;;;;;;4977652;28;20030;-80
2022/04/03 06:11:24;;;;;;;3.70;1.08;;;-0.50;97.00;;;;;;4983447;28;20074;-76
2022/04/03 06:13:50;;;;;;;6.35;1.30;;;-0.40;96.60;;;;;;4987680;28;20109;-78
2022/04/03 06:16:16;;;;;;;3.10;1.20;;;-0.40;96.20;;;;;;4994536;28;20409;-76
2022/04/03 06:18:42;;;;;;;2.70;1.00;;;-0.30;95.80;;;;;;4993960;28;20041;-75
2022/04/03 06:21:09;;;;;;;4.53;1.02;;;-0.20;99.50;;;;;;4994389;28;20038;-78
2022/04/03 06:23:34;;;;;;;0.80;0.80;;;0.00;95.90;;;;;;4993239;28;20057;-78
2022/04/03 06:26:02;;;;;;;2.63;1.20;;;0.00;95.10;;;;;;4994552;28;20054;-78
2022/04/03 06:28:28;;;;;;;4.03;1.00;;;0.00;94.40;;;;;;4994058;28;20089;-67
2022/04/03 06:30:55;;;;;;;5.45;1.02;;;0.00;94.10;;;;;;4993968;28;20034;-71
2022/04/03 06:33:21;;;;;;;2.55;0.90;;;0.10;94.10;;;;;;4992689;28;20022;-73
2022/04/03 06:35:46;;;;;;;1.30;0.70;;;0.30;98.00;;;;;;4989216;28;20023;-68
2022/04/03 06:38:13;;;;;;;2.22;0.90;;;0.80;99.90;;;;;;4974123;28;20046;-71
2022/04/03 06:40:54;;;;;;;3.55;1.15;;;1.00;99.90;;;;;;4978876;28;20030;-75
2022/04/03 06:43:22;;;;;;;4.60;1.17;;;1.10;98.50;;;;;;4976071;28;20103;-74
2022/04/03 06:45:49;;;;;;;5.82;1.05;;;1.10;93.40;;;;;;4976770;28;20409;-74
2022/04/03 06:48:15;;;;;;;4.43;1.30;;;1.00;92.40;;;;;;4986137;28;20070;-74
2022/04/03 06:50:41;;;;;;;4.35;0.93;;;1.00;91.50;;;;;;4983154;28;20031;-75
2022/04/03 06:53:07;;;;;;;3.85;1.15;;;0.90;91.30;;;;;;4992426;28;20100;-74
2022/04/03 06:55:33;;;;;;;5.57;0.80;;;0.90;91.20;;;;;;4993055;28;20060;-74
2022/04/03 06:57:59;;;;;;;7.25;1.05;;;1.00;91.00;;;;;;4993274;28;20068;-71
2022/04/03 07:00:26;;;;;;;1.98;0.70;;;1.00;90.80;;;;;;4992362;28;20068;-72
2022/04/03 07:02:52;;;;;;;2.53;0.85;;;1.00;90.40;;;;;;5010583;28;20037;-73
2022/04/03 07:05:18;;;;;;;6.30;1.27;;;1.10;90.50;;;;;;5012821;28;20030;-73
2022/04/03 07:07:44;;;;;;;2.45;0.90;;;1.10;89.40;;;;;;5012605;28;20029;-73
2022/04/03 07:10:10;;;;;;;9.98;4.32;;;1.00;89.20;;;;;;5012605;28;20109;-75
2022/04/03 07:12:37;;;;;;;5.57;1.80;;;1.10;88.70;;;;;;5012714;28;20560;-72
2022/04/03 07:15:04;;;;;;;11.52;3.33;;;1.10;88.50;;;;;;5012491;28;20026;-73
2022/04/03 07:17:30;;;;;;;9.70;3.10;;;1.30;88.80;;;;;;5012611;28;20025;-76
2022/04/03 07:19:56;;;;;;;5.82;2.13;;;1.40;87.70;;;;;;5012184;28;20030;-77
2022/04/03 07:22:22;;;;;;;21.45;6.78;;;1.50;86.50;;;;;;5012526;28;20065;-76
2022/04/03 07:24:47;;;;;;;32.65;7.63;;;1.40;85.40;;;;;;5012446;28;20054;-77
2022/04/03 07:27:13;;;;;;;62.00;18.17;;;1.50;85.30;;;;;;5012307;28;20026;-76
2022/04/03 07:29:39;;;;;;;22.55;7.28;;;1.60;85.90;;;;;;4994776;28;20019;-77
2022/04/03 07:32:05;;;;;;;282.02;86.30;;;1.70;84.20;;;;;;4973299;28;20382;-77
2022/04/03 07:34:31;;;;;;;80.13;23.27;;;1.80;84.60;;;;;;4973413;28;20418;-77
2022/04/03 07:36:57;;;;;;;262.35;91.57;;;1.80;83.30;;;;;;4973300;28;20081;-78
2022/04/03 07:39:26;;;;;;;31.55;12.20;;;1.80;83.30;;;;;;4973047;28;20439;-77
2022/04/03 07:41:51;;;;;;;11.63;4.10;;;1.80;82.80;;;;;;4971929;28;20065;-77
2022/04/03 07:44:17;;;;;;;4.53;1.75;;;1.80;82.60;;;;;;4973313;28;20030;-78
2022/04/03 07:46:43;;;;;;;2.80;1.60;;;1.70;80.50;;;;;;4973188;28;20474;-77
2022/04/03 07:49:10;;;;;;;3.53;1.08;;;1.70;80.60;;;;;;4972960;28;20089;-78
2022/04/03 07:51:36;;;;;;;2.92;0.85;;;1.70;79.70;;;;;;4973245;28;20469;-77
2022/04/03 07:54:02;;;;;;;1.75;0.98;;;1.80;78.30;;;;;;4975291;28;20498;-76
2022/04/03 07:56:29;;;;;;;3.70;0.95;;;1.70;77.10;;;;;;4992437;28;20026;-79
2022/04/03 07:58:55;;;;;;;3.53;1.20;;;1.70;76.40;;;;;;4992300;28;20359;-78
2022/04/03 08:01:21;;;;;;;2.30;0.77;;;1.70;76.70;;;;;;4992329;28;20089;-79
2022/04/03 08:03:47;;;;;;;4.18;1.20;;;1.70;76.10;;;;;;4992223;28;20101;-79
2022/04/03 08:06:13;;;;;;;5.53;1.10;;;1.70;76.50;;;;;;4992497;28;20092;-81
2022/04/03 08:08:39;;;;;;;3.03;0.82;;;1.60;76.30;;;;;;4992272;28;20026;-70
2022/04/03 08:11:05;;;;;;;3.05;0.80;;;1.60;76.80;;;;;;4992951;28;20026;-68
2022/04/03 08:13:31;;;;;;;2.60;0.93;;;1.70;78.40;;;;;;4994725;28;20026;-68
2022/04/03 08:15:56;;;;;;;2.13;0.73;;;1.70;76.00;;;;;;4996060;28;20527;-69
2022/04/03 08:18:23;;;;;;;3.80;0.98;;;1.60;75.20;;;;;;4996620;28;20026;-69
2022/04/03 08:20:51;;;;;;;2.92;0.90;;;1.70;76.20;;;;;;4996096;28;20121;-69
2022/04/03 08:23:16;;;;;;;3.28;0.90;;;1.80;75.30;;;;;;4996188;28;20031;-69
2022/04/03 08:25:45;;;;;;;9.32;0.90;;;1.70;75.20;;;;;;4995746;28;20101;-69
2022/04/03 08:28:11;;;;;;;5.10;1.25;;;2.00;77.90;;;;;;4992104;28;20069;-71
2022/04/03 08:30:38;;;;;;;11.50;1.08;;;2.00;76.00;;;;;;4976387;28;20030;-70
2022/04/03 08:33:05;;;;;;;7.53;1.58;;;2.00;76.20;;;;;;4975538;28;20023;-69
2022/04/03 08:35:37;;;;;;;3.25;0.73;;;2.90;99.90;;;;;;4975543;28;20023;-71
2022/04/03 08:38:04;;;;;;;2.67;0.63;;;3.20;87.10;;;;;;4976110;28;20053;-70
2022/04/03 08:40:31;;;;;;;2.95;0.90;;;3.10;75.40;;;;;;4976448;28;20045;-71
2022/04/03 08:42:57;;;;;;;3.22;1.08;;;2.70;73.50;;;;;;4976251;28;20451;-70
2022/04/03 08:45:24;;;;;;;2.03;0.82;;;2.50;74.90;;;;;;4976922;28;20027;-70
2022/04/03 08:47:53;;;;;;;2.00;0.90;;;2.50;75.80;;;;;;4978006;28;20062;-70
2022/04/03 08:50:20;;;;;;;4.82;0.80;;;2.50;73.80;;;;;;4986769;28;20018;-70
2022/04/03 08:52:48;;;;;;;8.82;1.35;;;2.50;75.90;;;;;;4995710;28;20093;-70
2022/04/03 08:55:15;;;;;;;21.48;1.40;;;2.60;75.20;;;;;;4995430;28;20023;-70
2022/04/03 08:57:41;;;;;;;2.28;0.90;;;2.70;76.60;;;;;;4995421;28;20026;-70
2022/04/03 09:00:08;;;;;;;3.85;0.82;;;2.70;73.90;;;;;;4995222;28;20038;-71
2022/04/03 09:02:34;;;;;;;11.30;1.35;;;2.70;74.00;;;;;;4976150;28;20162;-70
2022/04/03 09:05:00;;;;;;;8.38;0.85;;;2.70;74.70;;;;;;4975895;28;20101;-70
2022/04/03 09:07:26;;;;;;;1.85;0.90;;;2.70;73.80;;;;;;4975895;28;20035;-71
2022/04/03 09:10:09;;;;;;;2.72;0.85;;;2.70;74.10;;;;;;4976052;28;20035;-70
2022/04/03 09:12:44;;;;;;;2.03;1.33;;;2.80;71.60;;;;;;4976209;28;20030;-70
2022/04/03 09:15:14;;;;;;;3.47;0.70;;;2.80;73.00;;;;;;4989506;28;20456;-70
2022/04/03 09:17:49;;;;;;;1.42;0.80;;;3.10;80.50;;;;;;4995103;28;20103;-70
2022/04/03 09:20:26;;;;;;;13.52;1.20;;;3.40;77.80;;;;;;4993060;28;20095;-69
2022/04/03 09:23:01;;;;;;;2.92;0.80;;;3.30;71.90;;;;;;4975193;28;20042;-68
2022/04/03 09:25:28;;;;;;;2.90;0.82;;;3.20;70.20;;;;;;4992909;28;20046;-68
2022/04/03 09:28:02;;;;;;;2.35;0.77;;;3.30;71.30;;;;;;4984310;28;20027;-69
2022/04/03 09:30:32;;;;;;;8.25;0.80;;;3.20;68.80;;;;;;4975709;28;20030;-72
2022/04/03 09:32:59;;;;;;;1.63;0.77;;;3.20;69.10;;;;;;4979400;28;20038;-73
2022/04/03 09:35:27;;;;;;;1.85;0.68;;;3.20;66.10;;;;;;4975393;28;20561;-73
2022/04/03 09:38:08;;;;;;;3.03;0.68;;;3.10;65.40;;;;;;4975203;28;20121;-74
2022/04/03 09:40:34;;;;;;;;;;;3.10;65.20;;;;;;4975676;28;20096;-74
2022/04/03 09:43:28;;;;;;;1.90;0.77;;;3.20;63.30;;;;;;4975532;28;19959;-74
2022/04/03 09:46:03;;;;;;;5.18;0.90;;;3.10;61.80;;;;;;4975196;28;20092;-74
2022/04/03 09:48:34;;;;;;;8.60;0.85;;;3.10;62.50;;;;;;4975183;28;20037;-74
2022/04/03 09:51:04;;;;;;;2.70;0.85;;;3.10;63.30;;;;;;4975180;28;20041;-74
2022/04/03 09:53:52;;;;;;;3.13;0.93;;;3.20;64.40;;;;;;4974997;28;20034;-74
2022/04/03 09:56:23;;;;;;;0.98;0.60;;;3.20;64.10;;;;;;4965219;28;20039;-74
2022/04/03 09:58:49;;;;;;;2.28;0.70;;;3.20;62.80;;;;;;4974913;28;20550;-75
2022/04/03 10:01:27;;;;;;;17.95;1.33;;;3.20;63.20;;;;;;4974673;28;20109;-76
2022/04/03 10:03:53;;;;;;;2.58;0.73;;;3.20;63.30;;;;;;4974936;28;20027;-77
2022/04/03 10:06:20;;;;;;;14.35;2.38;;;3.30;63.10;;;;;;4974828;28;20106;-77
2022/04/03 10:08:47;;;;;;;3.60;0.70;;;3.30;63.00;;;;;;4974827;28;20130;-77
2022/04/03 10:11:14;;;;;;;4.22;0.80;;;3.30;62.50;;;;;;4975001;28;20057;-77
2022/04/03 10:13:40;;;;;;;3.08;1.10;;;3.30;62.80;;;;;;4974887;28;20023;-76
2022/04/03 10:16:06;;;;;;;4.82;0.80;;;3.40;63.20;;;;;;4974775;28;20038;-76
2022/04/03 10:18:33;;;;;;;1.95;0.77;;;3.50;63.60;;;;;;4974739;28;20410;-77
2022/04/03 10:20:59;;;;;;;2.38;0.70;;;3.50;63.20;;;;;;4974296;28;20039;-76
2022/04/03 10:23:27;;;;;;;1.02;0.60;;;3.50;62.00;;;;;;4974771;28;20105;-77
2022/04/03 10:25:56;;;;;;;2.67;0.57;;;3.60;62.10;;;;;;4974273;28;20065;-77
2022/04/03 10:28:23;;;;;;;2.42;0.75;;;3.50;60.70;;;;;;4980920;28;20026;-75
2022/04/03 10:31:18;;;;;;;2.38;0.80;;;3.50;60.70;;;;;;4987276;28;20037;-74
2022/04/03 10:33:49;;;;;;;1.55;0.63;;;3.40;60.70;;;;;;4977741;28;20054;-78
2022/04/03 10:36:17;;;;;;;;;;;3.40;60.10;;;;;;4992976;28;20406;-72
2022/04/03 10:39:00;;;;;;;5.47;0.60;;;3.40;64.20;;;;;;4992363;28;19918;-73
2022/04/03 10:41:37;;;;;;;4.60;0.70;;;3.90;93.20;;;;;;4993558;28;20038;-71
2022/04/03 10:44:23;;;;;;;1.40;0.60;;;4.40;83.40;;;;;;4993583;28;20434;-72
2022/04/03 10:47:03;;;;;;;5.75;0.73;;;4.60;74.50;;;;;;4993304;28;20043;-72
2022/04/03 10:49:30;;;;;;;3.65;0.60;;;4.80;69.90;;;;;;4993316;28;20041;-73
2022/04/03 10:52:09;;;;;;;2.60;0.77;;;4.80;66.70;;;;;;4993722;28;20022;-73
2022/04/03 10:54:43;;;;;;;2.10;0.70;;;4.60;62.50;;;;;;4992229;28;20379;-74
2022/04/03 10:57:46;;;;;;;2.28;0.70;;;4.30;61.00;;;;;;4993198;28;20115;-78
2022/04/03 11:00:14;;;;;;;3.88;0.80;;;4.20;62.20;;;;;;4991652;28;20389;-72
2022/04/03 11:02:49;;;;;;;2.53;0.70;;;4.20;61.60;;;;;;4993197;28;20033;-74
2022/04/03 11:05:29;;;;;;;4.43;0.73;;;4.10;62.40;;;;;;4993286;28;20480;-76
2022/04/03 11:08:18;;;;;;;2.97;0.73;;;4.10;61.30;;;;;;4993060;28;20109;-68
2022/04/03 11:10:57;;;;;;;1.17;0.60;;;4.10;63.00;;;;;;4993049;28;20022;-73
2022/04/03 11:13:25;;;;;;;6.22;0.82;;;4.20;68.90;;;;;;4976297;28;20385;-74
2022/04/03 11:15:57;;;;;;;1.40;0.57;;;4.30;66.50;;;;;;4987385;28;20037;-74
2022/04/03 11:18:45;;;;;;;3.63;0.90;;;4.30;63.20;;;;;;4979814;28;20540;-73
2022/04/03 11:21:17;;;;;;;1.52;0.73;;;4.30;65.10;;;;;;4973391;28;20390;-71
2022/04/03 11:23:59;;;;;;;11.15;1.65;;;4.70;95.40;;;;;;4973376;28;20018;-75
2022/04/03 11:26:25;;;;;;;6.43;1.63;;;5.90;80.30;;;;;;4973770;28;20026;-75
2022/04/03 11:28:51;;;;;;;3.28;1.35;;;5.60;65.50;;;;;;4973680;28;20458;-75
2022/04/03 11:31:17;;;;;;;1.15;0.60;;;5.30;63.10;;;;;;4973254;28;20034;-75
2022/04/03 11:33:43;;;;;;;3.15;0.68;;;5.10;62.20;;;;;;4972029;28;20073;-77
2022/04/03 11:36:17;;;;;;;4.53;0.60;;;5.00;62.60;;;;;;4973099;28;20478;-75
2022/04/03 11:38:44;;;;;;;2.78;0.75;;;5.10;66.90;;;;;;4972927;28;20065;-73
2022/04/03 11:41:22;;;;;;;2.65;0.60;;;5.00;62.00;;;;;;4983652;28;20034;-73
2022/04/03 11:44:09;;;;;;;3.90;0.90;;;4.90;60.00;;;;;;4985937;28;20073;-73
2022/04/03 11:46:40;;;;;;;4.70;0.75;;;4.80;58.70;;;;;;4982771;28;20048;-73
2022/04/03 11:49:30;;;;;;;3.13;0.90;;;4.80;58.30;;;;;;4971872;28;20027;-74
2022/04/03 11:52:10;;;;;;;8.85;0.95;;;4.70;57.40;;;;;;4982274;28;20041;-73
2022/04/03 11:54:37;;;;;;;3.10;0.90;;;6.00;97.70;;;;;;4982380;28;20023;-73
2022/04/03 11:57:08;;;;;;;4.40;1.77;;;6.30;66.70;;;;;;4983786;28;20026;-74
2022/04/03 11:59:38;;;;;;;3.25;0.90;;;6.00;59.60;;;;;;4983019;28;20514;-72
2022/04/03 12:02:15;;;;;;;1.48;0.73;;;5.70;58.80;;;;;;4984228;28;20034;-74
2022/04/03 12:04:44;;;;;;;4.97;0.98;;;5.50;59.30;;;;;;4985796;28;20045;-72
2022/04/03 12:07:14;;;;;;;2.17;0.70;;;5.40;59.00;;;;;;4980139;28;20026;-72
2022/04/03 12:09:42;;;;;;;3.88;1.02;;;5.30;59.10;;;;;;4978867;28;20454;-73
2022/04/03 12:12:10;;;;;;;1.88;0.43;;;5.30;59.00;;;;;;4978951;28;20121;-72
2022/04/03 12:14:39;;;;;;;2.38;0.70;;;5.20;58.60;;;;;;4980795;28;20496;-72
2022/04/03 12:17:12;;;;;;;2.08;0.50;;;5.10;58.50;;;;;;4982258;28;20024;-73
2022/04/03 12:19:38;;;;;;;2.35;0.65;;;5.00;58.60;;;;;;4980579;28;20026;-73
2022/04/03 12:22:08;;;;;;;0.50;0.50;;;5.00;58.70;;;;;;4979982;28;20573;-73
2022/04/03 12:24:35;;;;;;;0.82;0.60;;;4.80;58.60;;;;;;4986560;28;20037;-72
2022/04/03 12:27:02;;;;;;;1.30;0.60;;;4.80;58.60;;;;;;4983355;28;20162;-76
2022/04/03 12:29:30;;;;;;;0.85;0.40;;;4.80;58.70;;;;;;4986635;28;20069;-74
2022/04/03 12:32:06;;;;;;;0.60;0.60;;;4.80;58.40;;;;;;4982505;28;20478;-73
2022/04/03 12:34:37;;;;;;;1.48;0.70;;;4.80;58.20;;;;;;4980901;28;20380;-69
2022/04/03 12:37:05;;;;;;;0.95;0.50;;;4.80;58.60;;;;;;4984553;28;20413;-70
2022/04/03 12:39:31;;;;;;;3.22;0.50;;;4.80;58.70;;;;;;4981164;28;20053;-77
2022/04/03 12:42:08;;;;;;;0.30;0.30;;;4.90;59.10;;;;;;4978198;28;20043;-74
2022/04/03 12:45:00;;;;;;;4.55;0.65;;;4.80;58.80;;;;;;4980454;28;20022;-75
2022/04/03 12:47:38;;;;;;;3.67;0.60;;;4.90;59.40;;;;;;4984536;28;20023;-75
2022/04/03 12:50:06;;;;;;;0.85;0.47;;;4.90;59.30;;;;;;4982681;28;20054;-74
2022/04/03 12:52:42;;;;;;;0.52;0.50;;;4.90;59.10;;;;;;4981269;28;20102;-74
2022/04/03 12:55:32;;;;;;;3.58;0.60;;;4.80;59.40;;;;;;4980565;28;20035;-72
2022/04/03 13:01:11;;;;;;;1.77;0.70;;;4.80;59.30;;;;;;4983827;28;20065;-71
2022/04/03 13:03:38;;;;;;;0.65;0.60;;;4.80;59.80;;;;;;4980760;28;20045;-73
2022/04/03 13:06:08;;;;;;;7.43;0.90;;;4.90;60.10;;;;;;4984787;28;20027;-72
2022/04/03 13:08:41;;;;;;;19.37;1.17;;;4.90;60.30;;;;;;4988516;28;20417;-68
2022/04/03 13:11:06;;;;;;;6.35;0.90;;;4.90;59.90;;;;;;4984503;28;20029;-69
2022/04/03 13:13:35;;;;;;;4.93;1.05;;;5.00;59.70;;;;;;4985716;28;20022;-69
2022/04/03 13:16:01;;;;;;;13.88;0.93;;;5.00;59.30;;;;;;4985532;28;20545;-69
2022/04/03 13:18:27;;;;;;;1.00;0.50;;;5.00;59.90;;;;;;4983852;28;20050;-69
2022/04/03 13:20:55;;;;;;;4.22;0.70;;;5.00;60.60;;;;;;4983812;28;20038;-70
2022/04/03 13:23:22;;;;;;;4.03;0.95;;;5.00;60.80;;;;;;4983738;28;20313;-69
2022/04/03 13:25:49;;;;;;;6.88;1.20;;;4.90;62.20;;;;;;4987760;28;20046;-69
2022/04/03 13:28:17;;;;;;;20.30;2.53;;;4.70;62.80;;;;;;4985557;28;20553;-69
2022/04/03 13:30:44;;;;;;;9.00;1.50;;;4.60;63.80;;;;;;4983052;28;20026;-69
2022/04/03 13:33:10;;;;;;;4.82;1.20;;;4.30;63.50;;;;;;4981941;28;20030;-68
2022/04/03 13:35:38;;;;;;;12.63;1.40;;;4.10;63.00;;;;;;4983184;28;20045;-68
2022/04/03 13:38:11;;;;;;;4.80;1.00;;;3.90;63.20;;;;;;4983152;28;20043;-68
2022/04/03 13:40:38;;;;;;;9.43;1.40;;;3.80;64.70;;;;;;4983470;28;20042;-68
2022/04/03 13:43:09;;;;;;;5.25;1.08;;;3.60;65.10;;;;;;4983722;28;20023;-68
2022/04/03 13:48:21;;;;;;;3.38;1.05;;;3.50;66.00;;;;;;4981769;28;20182;-69
2022/04/03 13:50:46;;;;;;;4.65;0.82;;;3.40;66.80;;;;;;4982294;28;20172;-72
2022/04/03 13:53:12;;;;;;;4.30;1.17;;;3.40;67.10;;;;;;4985320;28;20030;-70
2022/04/03 13:55:40;;;;;;;6.50;1.10;;;3.30;67.40;;;;;;4982657;28;20054;-70
2022/04/03 13:58:06;;;;;;;8.43;1.20;;;3.30;67.80;;;;;;4985690;28;20483;-70
2022/04/03 14:00:32;;;;;;;2.28;1.00;;;3.30;68.30;;;;;;4983329;28;20108;-73
2022/04/03 14:02:58;;;;;;;10.55;1.55;;;3.20;67.60;;;;;;4983041;28;20029;-73
2022/04/03 14:05:24;;;;;;;5.45;1.88;;;3.20;68.20;;;;;;4982512;28;20030;-71
2022/04/03 14:07:49;;;;;;;8.70;1.02;;;3.20;68.40;;;;;;4983344;28;20042;-71